createdAt,value
2017-11-25T00:00:01.463Z,46.70
2017-11-25T00:00:05.462Z,46.85
2017-11-25T00:00:09.469Z,46.70
2017-11-25T00:00:13.708Z,48.47
2017-11-25T00:00:17.960Z,48.50
2017-11-25T00:00:22.213Z,47.60
2017-11-25T00:00:28.154Z,47.93
2017-11-25T00:00:32.395Z,47.30
2017-11-25T00:00:36.643Z,47.75
2017-11-25T00:00:40.892Z,47.65
2017-11-25T00:00:45.128Z,48.95
2017-11-25T00:00:50.139Z,49.17
2017-11-25T00:00:55.125Z,48.87
2017-11-25T00:00:59.378Z,48.33
2017-11-25T00:01:03.656Z,48.35
2017-11-25T00:01:08.655Z,50.05
2017-11-25T00:01:12.895Z,50.43
2017-11-25T00:01:17.152Z,51.35
2017-11-25T00:01:21.405Z,52.57
2017-11-25T00:01:25.635Z,52.70
2017-11-25T00:01:29.870Z,54.05
2017-11-25T00:01:34.894Z,55.40
2017-11-25T00:01:39.883Z,56.50
2017-11-25T00:01:44.146Z,55.77
2017-11-25T00:01:48.393Z,55.90
2017-11-25T00:01:52.634Z,57.30
2017-11-25T00:01:56.880Z,58.15
2017-11-25T00:02:01.136Z,59.03
2017-11-25T00:02:05.384Z,59.55
2017-11-25T00:02:09.615Z,56.55
2017-11-25T00:02:14.617Z,56.50
2017-11-25T00:02:18.876Z,54.95
2017-11-25T00:02:23.204Z,54.55
2017-11-25T00:02:27.452Z,54.00
2017-11-25T00:02:31.761Z,52.45
2017-11-25T00:02:36.005Z,51.87
2017-11-25T00:02:40.762Z,50.97
2017-11-25T00:02:45.018Z,51.90
2017-11-25T00:02:49.262Z,51.55
2017-11-25T00:02:53.490Z,50.75
2017-11-25T00:02:57.740Z,50.97
2017-11-25T00:03:02.755Z,50.85
2017-11-25T00:03:07.766Z,50.00
2017-11-25T00:03:12.038Z,49.73
2017-11-25T00:03:16.267Z,50.50
2017-11-25T00:03:21.281Z,51.90
2017-11-25T00:03:26.310Z,52.40
2017-11-25T00:03:31.317Z,52.60
2017-11-25T00:03:35.581Z,51.73
2017-11-25T00:03:39.810Z,51.35
2017-11-25T00:03:44.058Z,50.80
2017-11-25T00:03:48.301Z,51.10
2017-11-25T00:03:52.562Z,52.40
2017-11-25T00:03:56.794Z,53.35
2017-11-25T00:04:01.044Z,53.60
2017-11-25T00:04:06.031Z,53.45
2017-11-25T00:04:11.056Z,54.27
2017-11-25T00:04:15.297Z,54.40
2017-11-25T00:04:19.538Z,54.00
2017-11-25T00:04:23.767Z,54.30
2017-11-25T00:04:28.781Z,55.05
2017-11-25T00:04:33.776Z,55.20
2017-11-25T00:04:38.006Z,55.80
2017-11-25T00:04:43.012Z,56.50
2017-11-25T00:04:48.024Z,55.63
2017-11-25T00:04:52.266Z,54.23
2017-11-25T00:04:56.493Z,52.85
2017-11-25T00:05:00.749Z,51.85
2017-11-25T00:05:04.997Z,54.35
2017-11-25T00:05:09.246Z,54.50
2017-11-25T00:05:14.268Z,53.75
2017-11-25T00:05:18.493Z,53.10
2017-11-25T00:05:22.732Z,52.80
2017-11-25T00:05:26.978Z,52.23
2017-11-25T00:05:37.487Z,52.35
2017-11-25T00:05:41.722Z,53.63
2017-11-25T00:05:45.957Z,56.50
2017-11-25T00:05:50.200Z,56.50
2017-11-25T00:05:55.197Z,57.00
2017-11-25T00:05:59.438Z,57.97
2017-11-25T00:06:03.670Z,56.65
2017-11-25T00:06:07.940Z,55.30
2017-11-25T00:06:19.962Z,55.35
2017-11-25T00:06:31.065Z,55.40
2017-11-25T00:06:36.084Z,55.35
2017-11-25T00:06:41.101Z,54.90
2017-11-25T00:06:46.111Z,54.30
2017-11-25T00:06:51.118Z,54.17
2017-11-25T00:06:55.509Z,53.03
2017-11-25T00:06:59.765Z,53.45
2017-11-25T00:07:04.021Z,54.20
2017-11-25T00:07:08.254Z,54.35
2017-11-25T00:07:12.546Z,54.43
2017-11-25T00:07:16.782Z,56.35
2017-11-25T00:07:21.010Z,57.00
2017-11-25T00:07:25.256Z,56.65
2017-11-25T00:07:29.516Z,56.40
2017-11-25T00:07:33.742Z,55.75
2017-11-25T00:07:38.006Z,55.15
2017-11-25T00:07:42.237Z,53.30
2017-11-25T00:07:47.266Z,51.97
2017-11-25T00:07:52.248Z,52.47
2017-11-25T00:07:56.507Z,52.50
2017-11-25T00:08:00.743Z,50.75
2017-11-25T00:08:05.776Z,50.20
2017-11-25T00:08:10.023Z,50.57
2017-11-25T00:08:14.270Z,51.17
2017-11-25T00:08:18.502Z,50.90
2017-11-25T00:08:22.739Z,50.10
2017-11-25T00:08:26.970Z,49.85
2017-11-25T00:08:31.224Z,50.00
2017-11-25T00:08:35.465Z,50.05
2017-11-25T00:08:39.699Z,50.25
2017-11-25T00:08:43.930Z,51.50
2017-11-25T00:08:48.195Z,52.60
2017-11-25T00:08:53.216Z,52.75
2017-11-25T00:08:58.230Z,53.93
2017-11-25T00:09:03.241Z,54.37
2017-11-25T00:09:08.252Z,54.53
2017-11-25T00:09:13.259Z,53.30
2017-11-25T00:09:17.506Z,52.40
2017-11-25T00:09:21.753Z,51.60
2017-11-25T00:09:26.007Z,51.63
2017-11-25T00:09:30.232Z,51.30
2017-11-25T00:09:34.483Z,52.00
2017-11-25T00:09:39.512Z,51.70
2017-11-25T00:09:44.523Z,51.00
2017-11-25T00:09:49.540Z,49.37
2017-11-25T00:09:54.539Z,48.67
2017-11-25T00:09:59.553Z,48.40
2017-11-25T00:10:03.786Z,48.80
2017-11-25T00:10:08.037Z,48.20
2017-11-25T00:10:12.265Z,48.20
2017-11-25T00:10:17.258Z,49.95
2017-11-25T00:10:21.513Z,50.15
2017-11-25T00:10:25.750Z,52.05
2017-11-25T00:10:29.994Z,52.05
2017-11-25T00:10:34.254Z,51.25
2017-11-25T00:10:38.514Z,51.83
2017-11-25T00:10:42.749Z,51.70
2017-11-25T00:10:46.999Z,53.30
2017-11-25T00:10:51.992Z,54.40
2017-11-25T00:10:56.233Z,54.83
2017-11-25T00:11:00.482Z,54.97
2017-11-25T00:11:04.734Z,55.65
2017-11-25T00:11:08.965Z,56.25
2017-11-25T00:11:13.222Z,55.85
2017-11-25T00:11:17.457Z,54.33
2017-11-25T00:11:21.708Z,54.10
2017-11-25T00:11:26.721Z,52.60
2017-11-25T00:11:31.721Z,52.47
2017-11-25T00:11:35.951Z,52.53
2017-11-25T00:11:40.218Z,52.90
2017-11-25T00:11:44.442Z,52.85
2017-11-25T00:11:49.461Z,50.80
2017-11-25T00:11:54.469Z,50.90
2017-11-25T00:11:59.473Z,49.40
2017-11-25T00:12:03.732Z,48.87
2017-11-25T00:12:08.172Z,47.90
2017-11-25T00:12:12.397Z,51.70
2017-11-25T00:12:17.416Z,51.80
2017-11-25T00:12:22.441Z,54.57
2017-11-25T00:12:26.676Z,56.60
2017-11-25T00:12:30.925Z,58.70
2017-11-25T00:12:35.944Z,58.60
2017-11-25T00:12:40.320Z,59.10
2017-11-25T00:12:44.550Z,60.40
2017-11-25T00:12:49.558Z,60.43
2017-11-25T00:12:54.567Z,60.80
2017-11-25T00:12:58.808Z,61.33
2017-11-25T00:13:03.065Z,61.50
2017-11-25T00:13:07.290Z,61.15
2017-11-25T00:13:11.523Z,57.60
2017-11-25T00:13:15.770Z,57.13
2017-11-25T00:13:20.005Z,54.35
2017-11-25T00:13:24.255Z,52.90
2017-11-25T00:13:28.492Z,51.10
2017-11-25T00:13:33.501Z,50.90
2017-11-25T00:13:38.517Z,51.20
2017-11-25T00:13:43.522Z,49.40
2017-11-25T00:13:47.770Z,49.57
2017-11-25T00:13:51.999Z,49.35
2017-11-25T00:13:56.247Z,49.20
2017-11-25T00:14:00.479Z,49.10
2017-11-25T00:14:04.732Z,49.20
2017-11-25T00:14:09.735Z,49.40
2017-11-25T00:14:13.968Z,50.23
2017-11-25T00:14:18.211Z,51.45
2017-11-25T00:14:22.457Z,50.80
2017-11-25T00:14:27.476Z,50.50
2017-11-25T00:14:32.496Z,50.50
2017-11-25T00:14:37.507Z,49.97
2017-11-25T00:14:42.530Z,51.07
2017-11-25T00:14:47.534Z,54.30
2017-11-25T00:14:52.560Z,54.63
2017-11-25T00:14:57.558Z,54.43
2017-11-25T00:15:01.809Z,55.20
2017-11-25T00:15:06.034Z,55.10
2017-11-25T00:15:10.283Z,55.47
2017-11-25T00:15:15.308Z,54.05
2017-11-25T00:15:20.308Z,54.57
2017-11-25T00:15:25.318Z,55.37
2017-11-25T00:15:29.549Z,54.67
2017-11-25T00:15:33.797Z,54.35
2017-11-25T00:15:38.044Z,54.53
2017-11-25T00:15:43.061Z,52.70
2017-11-25T00:15:48.084Z,50.03
2017-11-25T00:15:52.323Z,50.50
2017-11-25T00:15:56.573Z,50.65
2017-11-25T00:16:01.570Z,50.00
2017-11-25T00:16:05.820Z,50.40
2017-11-25T00:16:10.078Z,50.97
2017-11-25T00:16:14.329Z,51.15
2017-11-25T00:16:18.562Z,50.75
2017-11-25T00:16:22.794Z,50.53
2017-11-25T00:16:27.057Z,50.60
2017-11-25T00:16:31.308Z,51.15
2017-11-25T00:16:35.531Z,51.00
2017-11-25T00:16:39.778Z,51.73
2017-11-25T00:16:44.003Z,52.35
2017-11-25T00:16:48.243Z,51.90
2017-11-25T00:16:52.494Z,51.15
2017-11-25T00:16:57.505Z,51.17
2017-11-25T00:17:02.502Z,51.73
2017-11-25T00:17:06.755Z,51.77
2017-11-25T00:17:10.995Z,51.40
2017-11-25T00:17:15.241Z,51.25
2017-11-25T00:17:19.499Z,51.45
2017-11-25T00:17:23.749Z,51.33
2017-11-25T00:17:27.994Z,51.10
2017-11-25T00:17:32.396Z,51.00
2017-11-25T00:17:36.630Z,50.60
2017-11-25T00:17:40.888Z,50.00
2017-11-25T00:17:45.127Z,49.75
2017-11-25T00:17:49.392Z,49.97
2017-11-25T00:17:53.650Z,50.80
2017-11-25T00:17:57.921Z,50.65
2017-11-25T00:18:02.125Z,49.85
2017-11-25T00:18:07.146Z,49.67
2017-11-25T00:18:12.138Z,49.67
2017-11-25T00:18:16.399Z,49.77
2017-11-25T00:18:20.644Z,49.20
2017-11-25T00:18:24.871Z,49.65
2017-11-25T00:18:29.121Z,50.25
2017-11-25T00:18:33.370Z,50.13
2017-11-25T00:18:38.393Z,49.60
2017-11-25T00:18:42.631Z,49.73
2017-11-25T00:18:46.869Z,50.05
2017-11-25T00:18:51.885Z,50.00
2017-11-25T00:18:56.896Z,49.57
2017-11-25T00:19:02.036Z,50.30
2017-11-25T00:19:07.050Z,50.97
2017-11-25T00:19:12.055Z,50.80
2017-11-25T00:19:16.287Z,51.87
2017-11-25T00:19:20.518Z,52.50
2017-11-25T00:19:24.766Z,53.10
2017-11-25T00:19:29.769Z,52.43
2017-11-25T00:19:34.024Z,52.33
2017-11-25T00:19:38.245Z,53.05
2017-11-25T00:19:42.493Z,53.50
2017-11-25T00:19:47.493Z,53.35
2017-11-25T00:19:52.504Z,52.97
2017-11-25T00:19:56.755Z,53.27
2017-11-25T00:20:00.995Z,53.30
2017-11-25T00:20:05.231Z,52.50
2017-11-25T00:20:09.479Z,52.65
2017-11-25T00:20:13.735Z,52.07
2017-11-25T00:20:18.736Z,51.70
2017-11-25T00:20:23.768Z,50.87
2017-11-25T00:20:28.788Z,50.27
2017-11-25T00:20:33.036Z,50.43
2017-11-25T00:20:37.275Z,50.65
2017-11-25T00:20:42.297Z,49.85
2017-11-25T00:20:47.312Z,50.45
2017-11-25T00:20:52.329Z,50.27
2017-11-25T00:20:57.341Z,50.13
2017-11-25T00:21:02.354Z,49.60
2017-11-25T00:21:07.349Z,50.00
2017-11-25T00:21:11.612Z,49.53
2017-11-25T00:21:15.843Z,48.85
2017-11-25T00:21:20.089Z,49.15
2017-11-25T00:21:25.102Z,49.30
2017-11-25T00:21:30.094Z,49.70
2017-11-25T00:21:34.333Z,50.57
2017-11-25T00:21:38.587Z,51.25
2017-11-25T00:21:42.840Z,51.00
2017-11-25T00:21:47.083Z,50.40
2017-11-25T00:21:51.336Z,51.20
2017-11-25T00:21:55.568Z,51.45
2017-11-25T00:21:59.821Z,52.25
2017-11-25T00:22:04.818Z,52.05
2017-11-25T00:22:09.067Z,52.50
2017-11-25T00:22:13.302Z,52.60
2017-11-25T00:22:17.578Z,52.45
2017-11-25T00:22:21.836Z,52.50
2017-11-25T00:22:26.857Z,52.67
2017-11-25T00:22:31.854Z,51.50
2017-11-25T00:22:36.090Z,50.97
2017-11-25T00:22:40.318Z,50.70
2017-11-25T00:22:44.641Z,50.55
2017-11-25T00:22:48.872Z,51.00
2017-11-25T00:22:53.915Z,50.13
2017-11-25T00:22:58.896Z,49.37
2017-11-25T00:23:03.157Z,48.87
2017-11-25T00:23:07.405Z,48.70
2017-11-25T00:23:11.630Z,48.65
2017-11-25T00:23:15.862Z,48.60
2017-11-25T00:23:20.099Z,48.70
2017-11-25T00:23:25.107Z,48.65
2017-11-25T00:23:29.334Z,48.93
2017-11-25T00:23:33.575Z,49.05
2017-11-25T00:23:37.824Z,48.03
2017-11-25T00:23:42.849Z,48.00
2017-11-25T00:23:47.859Z,47.30
2017-11-25T00:23:52.871Z,47.23
2017-11-25T00:23:57.888Z,47.63
2017-11-25T00:24:02.909Z,48.27
2017-11-25T00:24:07.925Z,48.23
2017-11-25T00:24:12.922Z,49.00
2017-11-25T00:24:17.169Z,50.67
2017-11-25T00:24:21.402Z,50.75
2017-11-25T00:24:25.646Z,51.97
2017-11-25T00:24:30.672Z,52.15
2017-11-25T00:24:35.683Z,52.17
2017-11-25T00:24:40.704Z,53.00
2017-11-25T00:24:45.716Z,52.97
2017-11-25T00:24:49.952Z,52.33
2017-11-25T00:24:54.202Z,52.20
2017-11-25T00:24:58.440Z,52.00
2017-11-25T00:25:02.703Z,52.20
2017-11-25T00:25:06.934Z,51.85
2017-11-25T00:25:11.175Z,52.35
2017-11-25T00:25:15.445Z,50.57
2017-11-25T00:25:19.688Z,50.00
2017-11-25T00:25:23.923Z,49.40
2017-11-25T00:25:28.939Z,51.30
2017-11-25T00:25:33.957Z,52.43
2017-11-25T00:25:38.967Z,52.33
2017-11-25T00:25:43.976Z,53.33
2017-11-25T00:25:48.240Z,54.20
2017-11-25T00:25:52.466Z,54.90
2017-11-25T00:25:56.703Z,54.60
2017-11-25T00:26:00.953Z,54.65
2017-11-25T00:26:05.210Z,54.47
2017-11-25T00:26:09.439Z,53.30
2017-11-25T00:26:13.677Z,52.95
2017-11-25T00:26:17.931Z,53.35
2017-11-25T00:26:22.190Z,54.00
2017-11-25T00:26:27.198Z,52.95
2017-11-25T00:26:32.196Z,51.10
2017-11-25T00:26:36.427Z,50.87
2017-11-25T00:26:41.422Z,50.20
2017-11-25T00:26:45.654Z,50.00
2017-11-25T00:26:49.908Z,50.47
2017-11-25T00:26:54.158Z,51.30
2017-11-25T00:26:58.405Z,52.20
2017-11-25T00:27:02.636Z,52.35
2017-11-25T00:27:07.645Z,53.30
2017-11-25T00:27:11.901Z,54.13
2017-11-25T00:27:16.151Z,54.60
2017-11-25T00:27:20.421Z,54.20
2017-11-25T00:27:24.659Z,54.77
2017-11-25T00:27:39.244Z,54.72
2017-11-25T00:27:43.483Z,54.45
2017-11-25T00:27:47.726Z,54.33
2017-11-25T00:27:51.983Z,54.05
2017-11-25T00:27:56.234Z,53.45
2017-11-25T00:28:00.494Z,53.17
2017-11-25T00:28:04.754Z,53.25
2017-11-25T00:28:09.081Z,54.15
2017-11-25T00:28:13.327Z,54.25
2017-11-25T00:28:17.575Z,54.70
2017-11-25T00:28:21.820Z,55.35
2017-11-25T00:28:26.064Z,55.75
2017-11-25T00:28:31.318Z,56.10
2017-11-25T00:28:36.331Z,56.70
2017-11-25T00:28:40.574Z,56.63
2017-11-25T00:28:44.820Z,57.70
2017-11-25T00:28:49.052Z,57.70
2017-11-25T00:28:54.046Z,57.53
2017-11-25T00:28:58.299Z,57.60
2017-11-25T00:29:02.552Z,56.70
2017-11-25T00:29:06.784Z,56.10
2017-11-25T00:29:11.031Z,55.45
2017-11-25T00:29:15.273Z,55.43
2017-11-25T00:29:19.514Z,54.00
2017-11-25T00:29:23.774Z,54.30
2017-11-25T00:29:28.788Z,54.10
2017-11-25T00:29:33.030Z,54.10
2017-11-25T00:29:37.272Z,53.60
2017-11-25T00:29:42.289Z,54.15
2017-11-25T00:29:46.505Z,53.47
2017-11-25T00:29:50.765Z,53.65
2017-11-25T00:29:55.029Z,53.93
2017-11-25T00:29:59.272Z,54.35
2017-11-25T00:30:03.521Z,55.10
2017-11-25T00:30:07.763Z,55.60
2017-11-25T00:30:12.020Z,55.30
2017-11-25T00:30:16.265Z,55.25
2017-11-25T00:30:20.517Z,55.30
2017-11-25T00:30:24.762Z,54.60
2017-11-25T00:30:29.020Z,53.90
2017-11-25T00:30:33.261Z,53.15
2017-11-25T00:30:37.489Z,53.45
2017-11-25T00:30:42.506Z,52.57
2017-11-25T00:30:47.502Z,53.10
2017-11-25T00:30:51.765Z,53.10
2017-11-25T00:30:56.017Z,52.90
2017-11-25T00:31:00.245Z,53.00
2017-11-25T00:31:05.260Z,52.15
2017-11-25T00:31:10.260Z,51.63
2017-11-25T00:31:15.276Z,51.53
2017-11-25T00:31:20.295Z,51.17
2017-11-25T00:31:24.528Z,51.57
2017-11-25T00:31:28.784Z,51.85
2017-11-25T00:31:33.020Z,51.70
2017-11-25T00:31:37.247Z,51.45
2017-11-25T00:31:41.481Z,52.67
2017-11-25T00:31:45.711Z,51.75
2017-11-25T00:31:50.735Z,51.60
2017-11-25T00:31:55.739Z,50.93
2017-11-25T00:32:00.759Z,50.30
2017-11-25T00:32:05.779Z,50.27
2017-11-25T00:32:10.785Z,50.23
2017-11-25T00:32:15.040Z,50.20
2017-11-25T00:32:19.277Z,49.77
2017-11-25T00:32:23.523Z,49.75
2017-11-25T00:32:27.765Z,49.60
2017-11-25T00:32:33.533Z,50.45
2017-11-25T00:32:37.774Z,50.38
2017-11-25T00:32:42.011Z,48.50
2017-11-25T00:32:46.242Z,48.63
2017-11-25T00:32:50.487Z,48.45
2017-11-25T00:32:54.726Z,48.60
2017-11-25T00:32:59.726Z,48.65
2017-11-25T00:33:03.981Z,48.40
2017-11-25T00:33:08.244Z,48.23
2017-11-25T00:33:13.320Z,48.70
2017-11-25T00:33:17.552Z,49.37
2017-11-25T00:33:21.779Z,49.30
2017-11-25T00:33:26.043Z,49.43
2017-11-25T00:33:30.286Z,49.15
2017-11-25T00:33:34.537Z,49.00
2017-11-25T00:33:38.789Z,49.15
2017-11-25T00:33:43.045Z,49.53
2017-11-25T00:33:47.284Z,48.90
2017-11-25T00:33:51.519Z,48.70
2017-11-25T00:33:55.779Z,48.60
2017-11-25T00:34:00.011Z,48.23
2017-11-25T00:34:04.261Z,48.65
2017-11-25T00:34:09.266Z,47.90
2017-11-25T00:34:13.492Z,46.97
2017-11-25T00:34:17.739Z,47.33
2017-11-25T00:34:21.989Z,47.35
2017-11-25T00:34:26.232Z,47.40
2017-11-25T00:34:30.465Z,47.20
2017-11-25T00:34:34.720Z,47.40
2017-11-25T00:34:38.955Z,47.65
2017-11-25T00:34:43.214Z,47.70
2017-11-25T00:34:47.453Z,47.45
2017-11-25T00:34:51.705Z,47.20
2017-11-25T00:34:55.944Z,47.10
2017-11-25T00:35:00.179Z,46.75
2017-11-25T00:35:05.206Z,46.30
2017-11-25T00:35:10.193Z,46.20
2017-11-25T00:35:14.431Z,45.73
2017-11-25T00:35:18.688Z,44.75
2017-11-25T00:35:22.933Z,44.85
2017-11-25T00:35:27.176Z,44.30
2017-11-25T00:35:31.433Z,44.70
2017-11-25T00:35:35.689Z,44.90
2017-11-25T00:35:39.921Z,45.60
2017-11-25T00:35:44.926Z,46.05
2017-11-25T00:35:49.947Z,47.17
2017-11-25T00:35:54.228Z,47.88
2017-11-25T00:35:58.481Z,48.25
2017-11-25T00:36:02.735Z,49.35
2017-11-25T00:36:06.974Z,49.50
2017-11-25T00:36:11.224Z,49.80
2017-11-25T00:36:15.479Z,50.10
2017-11-25T00:36:19.694Z,50.25
2017-11-25T00:36:23.961Z,49.45
2017-11-25T00:36:28.969Z,49.57
2017-11-25T00:36:33.970Z,49.43
2017-11-25T00:36:38.214Z,48.37
2017-11-25T00:36:42.447Z,47.40
2017-11-25T00:36:46.678Z,47.05
2017-11-25T00:36:51.701Z,47.20
2017-11-25T00:36:56.752Z,48.23
2017-11-25T00:37:01.727Z,48.27
2017-11-25T00:37:06.740Z,48.27
2017-11-25T00:37:10.998Z,48.87
2017-11-25T00:37:15.698Z,49.00
2017-11-25T00:37:20.674Z,50.03
2017-11-25T00:37:25.685Z,50.93
2017-11-25T00:37:29.927Z,50.87
2017-11-25T00:37:34.163Z,50.00
2017-11-25T00:37:38.399Z,50.45
2017-11-25T00:37:43.427Z,50.80
2017-11-25T00:37:47.688Z,51.72
2017-11-25T00:37:51.950Z,50.95
2017-11-25T00:37:56.177Z,50.70
2017-11-25T00:38:01.193Z,50.40
2017-11-25T00:38:05.422Z,50.33
2017-11-25T00:38:09.676Z,50.03
2017-11-25T00:38:13.912Z,50.05
2017-11-25T00:38:18.165Z,49.95
2017-11-25T00:38:22.400Z,49.20
2017-11-25T00:38:26.653Z,49.00
2017-11-25T00:38:30.896Z,49.25
2017-11-25T00:38:35.912Z,49.60
2017-11-25T00:38:40.147Z,49.50
2017-11-25T00:38:45.161Z,48.25
2017-11-25T00:38:49.408Z,47.25
2017-11-25T00:38:53.655Z,47.30
2017-11-25T00:38:57.881Z,47.00
2017-11-25T00:39:02.134Z,46.90
2017-11-25T00:39:06.362Z,47.57
2017-11-25T00:39:11.374Z,47.60
2017-11-25T00:39:15.616Z,47.73
2017-11-25T00:39:19.862Z,47.80
2017-11-25T00:39:24.103Z,48.55
2017-11-25T00:39:29.123Z,48.60
2017-11-25T00:39:34.127Z,47.63
2017-11-25T00:39:39.136Z,47.27
2017-11-25T00:39:43.375Z,48.07
2017-11-25T00:39:47.602Z,48.35
2017-11-25T00:39:51.838Z,48.95
2017-11-25T00:39:56.891Z,49.07
2017-11-25T00:40:01.871Z,49.87
2017-11-25T00:40:06.998Z,50.00
2017-11-25T00:40:12.002Z,50.50
2017-11-25T00:40:16.260Z,50.07
2017-11-25T00:40:20.484Z,50.60
2017-11-25T00:40:24.732Z,51.35
2017-11-25T00:40:28.962Z,51.23
2017-11-25T00:40:33.199Z,51.85
2017-11-25T00:40:37.435Z,52.20
2017-11-25T00:40:41.681Z,52.05
2017-11-25T00:40:45.930Z,51.70
2017-11-25T00:40:50.177Z,51.60
2017-11-25T00:40:54.435Z,51.00
2017-11-25T00:40:58.681Z,50.55
2017-11-25T00:41:02.936Z,50.43
2017-11-25T00:41:07.177Z,49.80
2017-11-25T00:41:11.419Z,49.50
2017-11-25T00:41:16.428Z,50.00
2017-11-25T00:41:21.422Z,49.47
2017-11-25T00:41:25.659Z,48.30
2017-11-25T00:41:29.913Z,49.05
2017-11-25T00:41:34.155Z,49.00
2017-11-25T00:41:39.160Z,49.00
2017-11-25T00:41:43.382Z,48.93
2017-11-25T00:41:47.622Z,49.03
2017-11-25T00:41:52.656Z,49.75
2017-11-25T00:41:56.896Z,49.67
2017-11-25T00:42:01.141Z,49.95
2017-11-25T00:42:05.383Z,49.85
2017-11-25T00:42:09.620Z,49.97
2017-11-25T00:42:13.871Z,49.80
2017-11-25T00:42:18.095Z,49.70
2017-11-25T00:42:22.352Z,49.20
2017-11-25T00:42:26.616Z,48.30
2017-11-25T00:42:30.870Z,47.60
2017-11-25T00:42:35.109Z,47.70
2017-11-25T00:42:39.344Z,47.63
2017-11-25T00:42:43.597Z,47.85
2017-11-25T00:42:48.608Z,48.30
2017-11-25T00:42:53.629Z,48.00
2017-11-25T00:42:58.667Z,48.00
2017-11-25T00:43:02.858Z,48.03
2017-11-25T00:43:07.090Z,47.90
2017-11-25T00:43:11.350Z,47.57
2017-11-25T00:43:15.578Z,47.50
2017-11-25T00:43:19.815Z,48.60
2017-11-25T00:43:24.063Z,49.57
2017-11-25T00:43:29.062Z,50.20
2017-11-25T00:43:34.079Z,50.07
2017-11-25T00:43:39.097Z,50.03
2017-11-25T00:43:44.112Z,50.37
2017-11-25T00:43:49.118Z,49.40
2017-11-25T00:43:54.139Z,48.97
2017-11-25T00:43:59.146Z,48.97
2017-11-25T00:44:03.383Z,48.00
2017-11-25T00:44:07.620Z,48.60
2017-11-25T00:44:11.853Z,48.90
2017-11-25T00:44:16.850Z,48.25
2017-11-25T00:44:21.099Z,47.83
2017-11-25T00:44:25.352Z,46.95
2017-11-25T00:44:29.592Z,46.95
2017-11-25T00:44:33.852Z,47.30
2017-11-25T00:44:38.087Z,47.30
2017-11-25T00:44:43.102Z,46.70
2017-11-25T00:44:48.124Z,47.40
2017-11-25T00:44:53.108Z,47.80
2017-11-25T00:44:57.356Z,48.10
2017-11-25T00:45:01.596Z,48.50
2017-11-25T00:45:05.852Z,48.10
2017-11-25T00:45:10.096Z,47.95
2017-11-25T00:45:14.395Z,47.80
2017-11-25T00:45:18.653Z,47.37
2017-11-25T00:45:22.888Z,47.25
2017-11-25T00:45:27.162Z,47.85
2017-11-25T00:45:32.152Z,47.45
2017-11-25T00:45:37.155Z,47.37
2017-11-25T00:45:41.424Z,47.20
2017-11-25T00:45:45.672Z,47.00
2017-11-25T00:45:50.683Z,46.75
2017-11-25T00:45:55.693Z,46.23
2017-11-25T00:45:59.922Z,46.10
2017-11-25T00:46:04.153Z,45.70
2017-11-25T00:46:08.417Z,45.83
2017-11-25T00:46:13.410Z,46.20
2017-11-25T00:46:18.428Z,45.97
2017-11-25T00:46:22.680Z,46.77
2017-11-25T00:46:26.926Z,46.85
2017-11-25T00:46:31.189Z,47.37
2017-11-25T00:46:35.440Z,47.20
2017-11-25T00:46:40.467Z,47.05
2017-11-25T00:46:45.459Z,46.97
2017-11-25T00:46:49.704Z,47.17
2017-11-25T00:46:53.955Z,46.90
2017-11-25T00:46:58.198Z,47.00
2017-11-25T00:47:02.455Z,47.35
2017-11-25T00:47:06.688Z,47.35
2017-11-25T00:47:10.926Z,47.05
2017-11-25T00:47:15.173Z,47.07
2017-11-25T00:47:20.190Z,46.40
2017-11-25T00:47:25.209Z,46.60
2017-11-25T00:47:30.204Z,46.70
2017-11-25T00:47:34.464Z,46.67
2017-11-25T00:47:38.688Z,46.75
2017-11-25T00:47:42.945Z,47.20
2017-11-25T00:47:47.192Z,46.90
2017-11-25T00:47:52.185Z,46.65
2017-11-25T00:47:56.454Z,47.13
2017-11-25T00:48:00.936Z,47.20
2017-11-25T00:48:05.238Z,47.20
2017-11-25T00:48:09.471Z,47.35
2017-11-25T00:48:13.711Z,47.30
2017-11-25T00:48:17.957Z,48.15
2017-11-25T00:48:22.962Z,48.20
2017-11-25T00:48:27.958Z,47.67
2017-11-25T00:48:32.217Z,47.63
2017-11-25T00:48:36.450Z,47.75
2017-11-25T00:48:40.704Z,47.40
2017-11-25T00:48:44.935Z,47.70
2017-11-25T00:48:49.166Z,48.65
2017-11-25T00:48:53.423Z,48.90
2017-11-25T00:48:57.697Z,48.50
2017-11-25T00:49:02.718Z,47.95
2017-11-25T00:49:06.987Z,47.67
2017-11-25T00:49:11.223Z,47.50
2017-11-25T00:49:15.502Z,47.83
2017-11-25T00:49:19.710Z,47.40
2017-11-25T00:49:24.711Z,47.50
2017-11-25T00:49:28.950Z,47.40
2017-11-25T00:49:33.173Z,47.45
2017-11-25T00:49:37.420Z,47.37
2017-11-25T00:49:42.544Z,47.60
2017-11-25T00:49:47.541Z,47.83
2017-11-25T00:49:51.776Z,47.37
2017-11-25T00:49:56.010Z,47.40
2017-11-25T00:50:00.252Z,47.70
2017-11-25T00:50:05.258Z,47.70
2017-11-25T00:50:09.500Z,47.83
2017-11-25T00:50:13.739Z,47.70
2017-11-25T00:50:17.966Z,47.00
2017-11-25T00:50:22.980Z,46.83
2017-11-25T00:50:27.326Z,46.93
2017-11-25T00:50:32.321Z,47.00
2017-11-25T00:50:37.318Z,46.87
2017-11-25T00:50:42.385Z,47.07
2017-11-25T00:50:46.614Z,46.23
2017-11-25T00:50:50.852Z,45.55
2017-11-25T00:50:55.861Z,44.93
2017-11-25T00:51:00.110Z,44.43
2017-11-25T00:51:04.361Z,44.35
2017-11-25T00:51:08.596Z,44.05
2017-11-25T00:51:12.844Z,43.90
2017-11-25T00:51:17.097Z,44.25
2017-11-25T00:51:21.332Z,44.45
2017-11-25T00:51:25.563Z,43.90
2017-11-25T00:51:30.572Z,44.23
2017-11-25T00:51:34.817Z,44.40
2017-11-25T00:51:39.055Z,44.55
2017-11-25T00:51:43.304Z,44.95
2017-11-25T00:51:47.557Z,45.70
2017-11-25T00:51:51.807Z,45.90
2017-11-25T00:51:56.060Z,47.00
2017-11-25T00:52:00.304Z,47.10
2017-11-25T00:52:04.560Z,47.25
2017-11-25T00:52:08.807Z,47.80
2017-11-25T00:52:13.038Z,47.90
2017-11-25T00:52:17.262Z,47.75
2017-11-25T00:52:21.502Z,47.43
2017-11-25T00:52:25.747Z,47.35
2017-11-25T00:52:29.999Z,47.30
2017-11-25T00:52:34.229Z,47.15
2017-11-25T00:52:39.223Z,47.20
2017-11-25T00:52:43.478Z,47.17
2017-11-25T00:52:47.716Z,46.90
2017-11-25T00:52:51.947Z,47.15
2017-11-25T00:52:56.174Z,46.30
2017-11-25T00:53:00.436Z,46.53
2017-11-25T00:53:04.676Z,46.05
2017-11-25T00:53:08.915Z,45.55
2017-11-25T00:53:13.168Z,45.45
2017-11-25T00:53:17.420Z,44.97
2017-11-25T00:53:21.662Z,45.00
2017-11-25T00:53:25.910Z,44.60
2017-11-25T00:53:30.921Z,44.30
2017-11-25T00:53:35.916Z,43.92
2017-11-25T00:53:40.167Z,42.90
2017-11-25T00:53:44.426Z,42.85
2017-11-25T00:53:48.692Z,43.40
2017-11-25T00:53:52.894Z,43.40
2017-11-25T00:53:57.153Z,43.37
2017-11-25T00:54:01.391Z,43.55
2017-11-25T00:54:05.628Z,44.25
2017-11-25T00:54:10.645Z,44.85
2017-11-25T00:54:14.874Z,45.17
2017-11-25T00:54:19.136Z,45.63
2017-11-25T00:54:23.381Z,46.00
2017-11-25T00:54:27.611Z,46.85
2017-11-25T00:54:31.869Z,47.05
2017-11-25T00:54:36.116Z,47.53
2017-11-25T00:54:40.360Z,48.05
2017-11-25T00:54:45.364Z,47.90
2017-11-25T00:54:50.393Z,47.40
2017-11-25T00:54:55.396Z,47.77
2017-11-25T00:54:59.619Z,48.33
2017-11-25T00:55:03.883Z,48.17
2017-11-25T00:55:08.134Z,47.85
2017-11-25T00:55:12.356Z,47.00
2017-11-25T00:55:16.594Z,46.70
2017-11-25T00:55:21.599Z,47.13
2017-11-25T00:55:25.860Z,46.63
2017-11-25T00:55:30.205Z,46.45
2017-11-25T00:55:34.467Z,45.85
2017-11-25T00:55:38.715Z,45.27
2017-11-25T00:55:42.968Z,44.90
2017-11-25T00:55:47.197Z,44.90
2017-11-25T00:55:51.426Z,44.70
2017-11-25T00:55:56.434Z,44.60
2017-11-25T00:56:00.693Z,44.30
2017-11-25T00:56:04.921Z,43.75
2017-11-25T00:56:09.158Z,43.75
2017-11-25T00:56:13.397Z,44.23
2017-11-25T00:56:17.648Z,44.00
2017-11-25T00:56:22.665Z,42.95
2017-11-25T00:56:27.676Z,43.10
2017-11-25T00:56:32.682Z,43.40
2017-11-25T00:56:36.928Z,43.30
2017-11-25T00:56:41.159Z,43.55
2017-11-25T00:56:45.416Z,43.17
2017-11-25T00:56:49.660Z,43.15
2017-11-25T00:56:53.909Z,43.15
2017-11-25T00:56:58.146Z,43.80
2017-11-25T00:57:02.441Z,44.35
2017-11-25T00:57:06.662Z,44.85
2017-11-25T00:57:10.908Z,44.65
2017-11-25T00:57:15.257Z,45.30
2017-11-25T00:57:19.475Z,45.70
2017-11-25T00:57:23.728Z,46.80
2017-11-25T00:57:27.971Z,47.05
2017-11-25T00:57:32.226Z,46.47
2017-11-25T00:57:36.454Z,46.70
2017-11-25T00:57:40.695Z,46.80
2017-11-25T00:57:45.721Z,47.03
2017-11-25T00:57:50.730Z,46.67
2017-11-25T00:57:55.728Z,46.23
2017-11-25T00:57:59.971Z,45.33